LiveATC.Net - Listen to live air traffic control over the Internet! Contact for advertising information

ICAO: SGAS  IATA: ASU   Airport: Silvio Pettirossi International Airport
City: Asuncion
Country: Paraguay   Continent: South America
SGAS METAR Weather: SGAS 100100Z 25007KT 220V290 8000 -DZ OVC004 17/16 Q1014
SGAS Flight Activity (FlightAware)
SGAS Gnd/Twr/App
Feed Status: UP   Listeners: 3
Listen right in your browser - requires Flash (in browser, requires Flash)
Click here to listen with your own player (launches your MP3 player)
SGAS Gnd/Twr/App Audio Archives
Asuncion Approach119.700
Asuncion Control128.400
Asuncion Ground121.900
Asuncion Tower118.100


Unauthorized use prohibited. See Terms of Service

Find LiveATC Audio Streams

Airport/ARTCC Code

(e.g., 124.400, 128.75)
Site-wide search

Browse LiveATC Feeds
LiveATC Coverage Map
Top 50 LiveATC Feeds
Bad Weather Areas

Offer a LiveATC Feed
Press Inquiries

LiveATC on iPhone
LiveATC on Android

Windows Phone
Windows 8/10

LiveATC Mobile
(Mobile browser)

ATC Audio Archives
Interesting Recordings

LiveATC Forums

Home Page
Make a Donation
LiveATC Bookstore

Terms of Use
Privacy Policy

ATC/Radar Sites
U.S. ARTCC Freqs
Canadian Air Freqs


FAA Airport Status
Nat'l Airspace Status
Arrival Demand Charts

Server Software By:

Please make a donation to help us keep growing!